Time;durP1;ratioP1;P1;durP2;ratioP2;P2;SDS_P1;SDS_P2;PMS_P1;PMS_P2;Temp;Humidity;BMP_temperature;BMP_pressure;BME280_temperature;BME280_humidity;BME280_pressure;Samples;Min_cycle;Max_cycle;Signal;HPM_P1;HPM_P2
2022/08/11 00:00:07;;;;;;;8.55;5.35;;;19.10;99.90;;;;;;3060599;19;20006;-70
2022/08/11 00:01:16;;;;;;;7.70;5.35;;;19.10;99.90;;;;;;3060097;19;20007;-71
2022/08/11 00:02:29;;;;;;;9.70;5.70;;;18.80;99.90;;;;;;3060125;19;20017;-70
2022/08/11 00:03:34;;;;;;;9.27;5.57;;;18.90;99.90;;;;;;3060218;19;20055;-70
2022/08/11 00:04:38;;;;;;;10.07;6.32;;;18.70;99.90;;;;;;3060459;19;20013;-70
2022/08/11 00:05:54;;;;;;;8.63;5.47;;;18.90;99.90;;;;;;3060131;19;20090;-71
2022/08/11 00:07:01;;;;;;;8.15;5.32;;;18.90;99.90;;;;;;3060300;19;20026;-70
2022/08/11 00:08:06;;;;;;;12.70;6.35;;;18.80;99.90;;;;;;3060297;19;20051;-70
2022/08/11 00:09:10;;;;;;;9.63;6.03;;;18.90;99.90;;;;;;3060161;19;20007;-70
2022/08/11 00:10:15;;;;;;;9.73;5.57;;;18.90;99.90;;;;;;3060262;19;20379;-70
2022/08/11 00:11:18;;;;;;;10.48;6.20;;;18.90;99.90;;;;;;3060344;19;20077;-71
2022/08/11 00:12:22;;;;;;;8.88;5.53;;;18.90;99.90;;;;;;3060094;19;20017;-71
2022/08/11 00:13:32;;;;;;;7.85;5.47;;;18.60;99.90;;;;;;3060112;19;20011;-70
2022/08/11 00:14:37;;;;;;;9.40;5.78;;;19.00;99.90;;;;;;3060335;19;20356;-71
2022/08/11 00:15:40;;;;;;;9.13;5.97;;;18.80;99.90;;;;;;3060039;19;20016;-71
2022/08/11 00:16:45;;;;;;;8.23;5.80;;;18.80;99.90;;;;;;3060122;19;20345;-70
2022/08/11 00:17:48;;;;;;;11.38;6.68;;;18.80;99.90;;;;;;3060095;19;20344;-70
2022/08/11 00:18:54;;;;;;;10.40;6.00;;;18.70;99.90;;;;;;3060193;19;20360;-71
2022/08/11 00:20:03;;;;;;;10.13;6.30;;;18.90;99.90;;;;;;3060155;19;20341;-70
2022/08/11 00:21:08;;;;;;;9.88;6.63;;;18.90;99.90;;;;;;3060160;19;20094;-70
2022/08/11 00:22:11;;;;;;;9.88;6.20;;;18.70;99.90;;;;;;3060157;19;20083;-70
2022/08/11 00:23:18;;;;;;;7.90;5.72;;;18.60;99.90;;;;;;3059988;19;20042;-70
2022/08/11 00:24:21;;;;;;;8.35;5.93;;;18.90;99.90;;;;;;3059889;19;20015;-71
2022/08/11 00:25:25;;;;;;;8.60;6.38;;;18.60;99.90;;;;;;3059676;19;20006;-70
2022/08/11 00:26:28;;;;;;;9.45;6.55;;;18.60;99.90;;;;;;3059980;19;20014;-70
2022/08/11 00:27:36;;;;;;;8.57;5.93;;;18.60;99.90;;;;;;3060135;19;20103;-71
2022/08/11 00:28:41;;;;;;;9.45;6.40;;;18.60;99.90;;;;;;3059986;19;20010;-71
2022/08/11 00:29:55;;;;;;;8.48;6.53;;;18.50;99.90;;;;;;3059883;19;20015;-70
2022/08/11 00:30:58;;;;;;;10.55;6.30;;;18.70;99.90;;;;;;3059778;19;20349;-70
2022/08/11 00:32:05;;;;;;;10.32;6.60;;;18.70;99.90;;;;;;3059851;19;20096;-70
2022/08/11 00:33:07;;;;;;;12.57;6.85;;;18.70;99.90;;;;;;3060047;19;20035;-70
2022/08/11 00:34:14;;;;;;;9.27;6.47;;;18.50;99.90;;;;;;3059842;19;20373;-70
2022/08/11 00:35:17;;;;;;;10.57;6.78;;;18.60;99.90;;;;;;3059844;19;20033;-70
2022/08/11 00:36:25;;;;;;;8.45;6.25;;;18.50;99.90;;;;;;3059981;19;20002;-70
2022/08/11 00:37:27;;;;;;;10.20;6.25;;;18.60;99.90;;;;;;3059860;19;20018;-70
2022/08/11 00:38:35;;;;;;;11.07;6.40;;;18.70;99.90;;;;;;3059732;19;20024;-70
2022/08/11 00:39:55;;;;;;;10.60;7.03;;;18.60;99.90;;;;;;3060100;19;20009;-70
2022/08/11 00:41:05;;;;;;;9.15;6.65;;;18.70;99.90;;;;;;3059690;19;20503;-70
2022/08/11 00:42:20;;;;;;;9.35;6.30;;;18.60;99.90;;;;;;3059774;19;20078;-70
2022/08/11 00:43:28;;;;;;;10.57;7.25;;;18.60;99.90;;;;;;3059805;19;20010;-70
2022/08/11 00:44:45;;;;;;;9.80;7.70;;;18.70;99.90;;;;;;3059682;19;20014;-70
2022/08/11 00:46:08;;;;;;;11.27;7.22;;;18.50;99.90;;;;;;3059761;19;19999;-70
2022/08/11 00:47:22;;;;;;;11.05;7.30;;;18.40;99.90;;;;;;3059095;19;20042;-70
2022/08/11 00:48:28;;;;;;;10.25;7.53;;;18.50;99.90;;;;;;3059562;19;20017;-70
2022/08/11 00:49:54;;;;;;;16.02;7.40;;;18.50;99.90;;;;;;3059649;19;20010;-70
2022/08/11 00:51:22;;;;;;;10.68;7.00;;;18.40;99.90;;;;;;3058790;19;20044;-70
2022/08/11 00:52:38;;;;;;;13.13;7.32;;;18.40;99.90;;;;;;3059191;19;20548;-70
2022/08/11 00:53:56;;;;;;;11.45;7.97;;;18.60;99.90;;;;;;3059786;19;20022;-70
2022/08/11 00:55:42;;;;;;;9.85;7.50;;;18.50;99.90;;;;;;3059774;19;20011;-70
2022/08/11 00:57:17;;;;;;;13.13;8.40;;;18.40;99.90;;;;;;3058436;19;20015;-70
2022/08/11 00:58:57;;;;;;;12.82;8.15;;;18.30;99.90;;;;;;3059470;19;20488;-70
2022/08/11 01:00:12;;;;;;;12.18;8.48;;;18.40;99.90;;;;;;3059427;19;20357;-70
2022/08/11 01:01:26;;;;;;;11.45;7.85;;;18.40;99.90;;;;;;3059631;19;20010;-70
2022/08/11 01:02:45;;;;;;;12.57;8.10;;;18.20;99.90;;;;;;3059442;19;20358;-70
2022/08/11 01:04:14;;;;;;;12.38;8.07;;;18.20;99.90;;;;;;3059581;19;20353;-70
2022/08/11 01:05:52;;;;;;;14.25;8.65;;;18.40;99.90;;;;;;3059647;19;20096;-70
2022/08/11 01:07:29;;;;;;;11.63;7.38;;;18.50;99.90;;;;;;3059607;19;20094;-70
2022/08/11 01:08:56;;;;;;;13.80;8.85;;;18.40;99.90;;;;;;3059194;19;20020;-70
2022/08/11 01:10:34;;;;;;;12.25;8.52;;;18.20;99.90;;;;;;3059476;19;20010;-70
2022/08/11 01:12:12;;;;;;;12.48;8.43;;;18.40;99.90;;;;;;3058942;19;20002;-70
2022/08/11 01:13:32;;;;;;;14.52;8.57;;;18.10;99.90;;;;;;3059275;19;20070;-70
2022/08/11 01:15:15;;;;;;;12.23;8.38;;;18.10;99.90;;;;;;3059193;19;20018;-70
2022/08/11 01:16:52;;;;;;;12.80;9.10;;;18.40;99.90;;;;;;3059110;19;20010;-71
2022/08/11 01:18:26;;;;;;;14.68;8.93;;;18.20;99.90;;;;;;3059264;19;20404;-71
2022/08/11 01:19:58;;;;;;;13.52;9.02;;;18.20;99.90;;;;;;3057907;19;20074;-70
2022/08/11 01:21:35;;;;;;;12.80;8.75;;;18.00;99.90;;;;;;3059251;19;20337;-71
2022/08/11 01:23:18;;;;;;;14.30;8.52;;;18.00;99.90;;;;;;3059127;19;20488;-70
2022/08/11 01:24:56;;;;;;;13.32;9.45;;;18.10;99.90;;;;;;3059108;19;20074;-70
2022/08/11 01:26:39;;;;;;;13.98;9.23;;;18.10;99.90;;;;;;3056956;19;20018;-71
2022/08/11 01:28:26;;;;;;;12.68;9.35;;;18.00;99.90;;;;;;3058336;19;20033;-71
2022/08/11 01:30:09;;;;;;;12.63;8.82;;;18.10;99.90;;;;;;3059254;19;20035;-71
2022/08/11 01:31:49;;;;;;;14.50;9.43;;;18.10;99.90;;;;;;3059378;19;20025;-71
2022/08/11 01:33:52;;;;;;;16.80;9.85;;;18.00;99.90;;;;;;3057494;19;20023;-71
2022/08/11 01:35:33;;;;;;;14.00;9.32;;;18.20;99.90;;;;;;3059091;19;20074;-71
2022/08/11 01:36:59;;;;;;;13.65;9.23;;;17.90;99.90;;;;;;3059257;19;20062;-70
2022/08/11 01:38:38;;;;;;;13.63;8.57;;;17.90;99.90;;;;;;3059232;19;20010;-70
2022/08/11 01:40:22;;;;;;;12.65;8.68;;;17.80;99.90;;;;;;3058978;19;20014;-71
2022/08/11 01:45:08;;;;;;;13.10;9.23;;;17.90;99.90;;;;;;3057357;19;20010;-70
2022/08/11 01:46:15;;;;;;;14.43;9.40;;;17.80;99.90;;;;;;3058988;19;20010;-71
2022/08/11 01:47:52;;;;;;;14.13;9.80;;;17.80;99.90;;;;;;3058678;19;20028;-71
2022/08/11 01:49:10;;;;;;;13.98;9.40;;;17.90;99.90;;;;;;3058863;19;20427;-71
2022/08/11 01:50:26;;;;;;;14.10;10.02;;;17.90;99.90;;;;;;3059021;19;20032;-71
2022/08/11 01:51:48;;;;;;;17.00;9.77;;;17.90;99.90;;;;;;3058689;19;20007;-70
2022/08/11 01:53:03;;;;;;;13.93;9.25;;;18.00;99.90;;;;;;3059041;19;20487;-71
2022/08/11 01:54:14;;;;;;;12.10;9.48;;;17.80;99.90;;;;;;3058686;19;20337;-70
2022/08/11 01:55:25;;;;;;;14.80;9.88;;;17.80;99.90;;;;;;3058593;19;20002;-70
2022/08/11 01:56:48;;;;;;;14.30;9.07;;;17.80;99.90;;;;;;3059058;19;20007;-71
2022/08/11 01:57:52;;;;;;;;;;;17.90;99.90;;;;;;3059310;19;20007;-70
2022/08/11 01:59:15;;;;;;;14.85;9.18;;;17.70;99.90;;;;;;3058744;19;20337;-70
2022/08/11 02:00:20;;;;;;;13.40;9.30;;;17.70;99.90;;;;;;3058665;19;20014;-70
2022/08/11 02:01:39;;;;;;;13.52;9.70;;;17.70;99.90;;;;;;3059008;19;20074;-70
2022/08/11 02:02:52;;;;;;;13.15;9.13;;;17.80;99.90;;;;;;3058677;19;20014;-71
2022/08/11 02:04:03;;;;;;;13.32;9.77;;;17.70;99.90;;;;;;3058724;19;20010;-71
2022/08/11 02:05:18;;;;;;;13.18;9.40;;;17.70;99.90;;;;;;3058888;19;20110;-70
2022/08/11 02:08:00;;;;;;;13.63;9.20;;;17.70;99.90;;;;;;3058683;19;20037;-71
2022/08/11 02:09:09;;;;;;;13.90;9.35;;;17.70;99.90;;;;;;3058688;19;20027;-70
2022/08/11 02:11:42;;;;;;;12.98;9.18;;;17.70;99.90;;;;;;3058123;19;20010;-71
2022/08/11 02:12:50;;;;;;;15.00;9.63;;;17.60;99.90;;;;;;3058673;19;20066;-70
2022/08/11 02:13:56;;;;;;;15.43;9.77;;;17.60;99.90;;;;;;3058577;19;20013;-71
2022/08/11 02:15:09;;;;;;;13.60;9.20;;;17.90;99.90;;;;;;3058685;19;20025;-71
2022/08/11 02:16:27;;;;;;;15.65;10.40;;;17.60;99.90;;;;;;3058678;19;20014;-70
2022/08/11 02:17:48;;;;;;;15.95;10.10;;;18.60;99.90;;;;;;3058718;19;20031;-70
2022/08/11 02:24:51;;;;;;;14.13;9.82;;;17.70;99.90;;;;;;3056283;19;20014;-71
2022/08/11 02:25:58;;;;;;;14.07;8.82;;;17.70;99.90;;;;;;3058163;19;20043;-70
2022/08/11 02:27:08;;;;;;;15.45;9.98;;;17.60;99.90;;;;;;3058186;19;20511;-71
2022/08/11 02:28:18;;;;;;;15.57;9.75;;;17.70;99.90;;;;;;3058532;19;20589;-71
2022/08/11 02:29:29;;;;;;;15.48;10.02;;;17.50;99.90;;;;;;3058223;19;20531;-71
2022/08/11 02:30:37;;;;;;;13.85;9.80;;;17.60;99.90;;;;;;3058402;19;20076;-70
2022/08/11 02:33:23;;;;;;;16.80;9.68;;;17.60;99.90;;;;;;3058300;19;20033;-71
2022/08/11 02:34:39;;;;;;;17.23;9.70;;;17.50;99.90;;;;;;3058328;19;20003;-71
2022/08/11 02:35:57;;;;;;;14.55;10.20;;;17.60;99.90;;;;;;3058135;19;20341;-71
2022/08/11 02:37:14;;;;;;;16.50;10.40;;;17.50;99.90;;;;;;3058123;19;20090;-71
2022/08/11 02:38:24;;;;;;;15.90;9.90;;;17.60;99.90;;;;;;3058502;19;20003;-70
2022/08/11 02:39:33;;;;;;;16.00;9.90;;;17.50;99.90;;;;;;3058152;19;20419;-72
2022/08/11 02:40:42;;;;;;;13.25;10.00;;;17.60;99.90;;;;;;3058135;19;20014;-71
2022/08/11 02:43:20;;;;;;;14.07;9.70;;;17.50;99.90;;;;;;3057892;19;20357;-71
2022/08/11 02:44:31;;;;;;;15.38;10.27;;;17.40;99.90;;;;;;3058078;19;20014;-71
2022/08/11 02:45:45;;;;;;;13.23;9.88;;;17.50;99.90;;;;;;3058179;19;20010;-71
2022/08/11 02:46:55;;;;;;;15.27;9.40;;;17.50;99.90;;;;;;3058133;19;20007;-71
2022/08/11 02:51:09;;;;;;;14.98;10.20;;;17.40;99.90;;;;;;3058311;19;20005;-71
2022/08/11 02:52:18;;;;;;;15.70;10.50;;;17.50;99.90;;;;;;3057958;19;20014;-71
2022/08/11 02:53:29;;;;;;;13.30;10.23;;;17.50;99.90;;;;;;3058035;19;20350;-71
2022/08/11 02:54:38;;;;;;;17.48;11.07;;;17.50;99.90;;;;;;3057964;19;20062;-71
2022/08/11 02:55:55;;;;;;;14.10;9.65;;;17.50;99.90;;;;;;3057726;19;20006;-71
2022/08/11 02:57:01;;;;;;;13.32;9.85;;;17.20;99.90;;;;;;3058232;19;20096;-71
2022/08/11 02:58:14;;;;;;;14.23;9.50;;;17.40;99.90;;;;;;3057974;19;20010;-71
2022/08/11 03:00:51;;;;;;;15.23;10.68;;;17.50;99.90;;;;;;3058027;19;20035;-70
2022/08/11 03:01:58;;;;;;;13.68;10.38;;;17.50;99.90;;;;;;3058127;19;20003;-70
2022/08/11 03:03:17;;;;;;;12.10;9.32;;;17.30;99.90;;;;;;3057925;19;20074;-71
2022/08/11 03:04:29;;;;;;;15.65;10.40;;;17.40;99.90;;;;;;3057874;19;20021;-71
2022/08/11 03:05:50;;;;;;;15.63;10.23;;;17.40;99.90;;;;;;3058208;19;20013;-71
2022/08/11 03:07:03;;;;;;;15.27;9.52;;;17.50;99.90;;;;;;3057913;19;20077;-71
2022/08/11 03:08:17;;;;;;;15.20;9.63;;;17.60;99.90;;;;;;3057933;19;20002;-71
2022/08/11 03:09:29;;;;;;;14.45;9.82;;;17.40;99.90;;;;;;3058092;19;20035;-70
2022/08/11 03:10:40;;;;;;;13.77;10.20;;;17.20;99.90;;;;;;3057876;19;20491;-71
2022/08/11 03:17:35;;;;;;;14.07;10.50;;;17.20;99.90;;;;;;3057831;19;20044;-71
2022/08/11 03:18:44;;;;;;;13.32;10.38;;;17.20;99.90;;;;;;3057736;19;20002;-71
2022/08/11 03:19:58;;;;;;;13.52;9.60;;;17.30;99.90;;;;;;3057947;19;20343;-70
2022/08/11 03:21:08;;;;;;;13.55;9.85;;;17.30;99.90;;;;;;3057877;19;20006;-70
2022/08/11 03:22:23;;;;;;;14.13;10.32;;;17.10;99.90;;;;;;3058045;19;20033;-70
2022/08/11 03:23:29;;;;;;;15.93;10.38;;;17.20;99.90;;;;;;3057244;19;20484;-71
2022/08/11 03:24:45;;;;;;;14.30;10.15;;;17.30;99.90;;;;;;3057526;19;20401;-70
2022/08/11 03:25:53;;;;;;;13.77;9.90;;;17.20;99.90;;;;;;3057197;19;20502;-70
2022/08/11 03:27:07;;;;;;;15.68;10.40;;;17.00;99.90;;;;;;3057535;19;20027;-70
2022/08/11 03:28:20;;;;;;;14.68;9.32;;;17.10;99.90;;;;;;3057840;19;20348;-70
2022/08/11 03:29:33;;;;;;;13.65;10.80;;;17.20;99.90;;;;;;3057624;19;20007;-70
2022/08/11 03:30:45;;;;;;;16.88;10.52;;;17.20;99.90;;;;;;3057697;19;20003;-70
2022/08/11 03:32:00;;;;;;;17.65;10.73;;;17.00;99.90;;;;;;3057653;19;20491;-70
2022/08/11 03:34:36;;;;;;;14.82;10.60;;;17.10;99.90;;;;;;3057537;19;20011;-70
2022/08/11 03:35:57;;;;;;;16.75;10.68;;;17.10;99.90;;;;;;3058570;19;20019;-70
2022/08/11 03:39:02;;;;;;;13.45;9.93;;;17.20;99.90;;;;;;3060671;19;20024;-70
2022/08/11 03:40:15;;;;;;;14.18;10.05;;;17.30;99.90;;;;;;3060546;19;20074;-70
2022/08/11 03:41:43;;;;;;;14.15;10.27;;;17.00;99.90;;;;;;3060534;19;20018;-70
2022/08/11 03:42:56;;;;;;;17.90;10.50;;;17.20;99.90;;;;;;3060597;19;20082;-70
2022/08/11 03:44:13;;;;;;;14.57;9.85;;;17.20;99.90;;;;;;3059682;19;20019;-70
2022/08/11 03:45:27;;;;;;;14.32;10.02;;;17.10;99.90;;;;;;3060674;19;20002;-70
2022/08/11 03:46:55;;;;;;;14.35;10.05;;;17.00;99.90;;;;;;3060521;19;20035;-70
2022/08/11 03:48:10;;;;;;;14.68;10.32;;;16.90;99.90;;;;;;3060555;19;20018;-70
2022/08/11 03:49:27;;;;;;;15.75;10.77;;;17.00;99.90;;;;;;3060473;19;20070;-70
2022/08/11 03:50:55;;;;;;;17.45;10.90;;;17.10;99.90;;;;;;3060501;19;20014;-71
2022/08/11 03:52:12;;;;;;;14.30;10.93;;;17.00;99.90;;;;;;3060387;19;20018;-70
2022/08/11 03:53:21;;;;;;;16.23;10.27;;;17.10;99.90;;;;;;3060515;19;20017;-70
2022/08/11 03:54:36;;;;;;;16.45;10.57;;;17.20;99.90;;;;;;3060115;19;20007;-70
2022/08/11 03:56:12;;;;;;;14.25;9.85;;;17.00;99.90;;;;;;3060006;19;20011;-70
2022/08/11 03:57:53;;;;;;;14.20;10.52;;;17.10;99.90;;;;;;3060516;19;20014;-71
2022/08/11 03:59:21;;;;;;;15.35;9.98;;;17.10;99.90;;;;;;3058360;19;20538;-70
2022/08/11 04:00:49;;;;;;;17.83;10.88;;;17.00;99.90;;;;;;3058675;19;20027;-70
2022/08/11 04:02:13;;;;;;;14.80;10.25;;;17.00;99.90;;;;;;3060371;19;20510;-70
2022/08/11 04:03:46;;;;;;;14.63;11.23;;;17.10;99.90;;;;;;3060168;19;20014;-70
2022/08/11 04:05:13;;;;;;;13.60;10.20;;;16.80;99.90;;;;;;3060091;19;20006;-70
2022/08/11 04:06:49;;;;;;;14.23;10.85;;;17.00;99.90;;;;;;3059099;19;20011;-70
2022/08/11 04:08:41;;;;;;;15.07;10.23;;;17.00;99.90;;;;;;3060242;19;20014;-70
2022/08/11 04:10:12;;;;;;;15.35;10.30;;;16.80;99.90;;;;;;3060369;19;20025;-70
2022/08/11 04:11:51;;;;;;;15.82;10.63;;;16.80;99.90;;;;;;3059416;19;20014;-71
2022/08/11 04:13:10;;;;;;;15.73;10.45;;;16.70;99.90;;;;;;3060098;19;20011;-70
2022/08/11 04:16:31;;;;;;;13.15;9.40;;;16.80;99.90;;;;;;3058667;19;20006;-70
2022/08/11 04:17:56;;;;;;;14.73;10.23;;;16.70;99.90;;;;;;3058575;19;20018;-70
2022/08/11 04:19:23;;;;;;;14.45;9.73;;;16.70;99.90;;;;;;3059848;19;20476;-72
2022/08/11 04:20:51;;;;;;;14.65;9.93;;;16.60;99.90;;;;;;3059335;19;20482;-72
2022/08/11 04:22:25;;;;;;;13.38;9.90;;;16.90;99.90;;;;;;3059574;19;20499;-71
2022/08/11 04:23:46;;;;;;;;;;;17.00;99.90;;;;;;3060754;19;20030;-71
2022/08/11 04:25:19;;;;;;;16.80;10.30;;;16.70;99.90;;;;;;3057870;19;19919;-71
2022/08/11 04:27:00;;;;;;;15.88;9.52;;;16.60;99.90;;;;;;3059984;19;20010;-71
2022/08/11 04:28:46;;;;;;;13.35;9.30;;;16.70;99.90;;;;;;3058259;19;20014;-71
2022/08/11 04:30:02;;;;;;;12.32;9.77;;;16.80;99.90;;;;;;3060019;19;20377;-71
2022/08/11 04:31:42;;;;;;;14.65;10.20;;;16.70;99.90;;;;;;3061603;19;20332;-71
2022/08/11 04:33:15;;;;;;;14.23;10.05;;;16.70;99.90;;;;;;3059606;19;20006;-72
2022/08/11 04:34:57;;;;;;;11.82;8.90;;;16.70;99.90;;;;;;3059841;19;20090;-71
2022/08/11 04:37:30;;;;;;;13.18;9.55;;;16.60;99.90;;;;;;3058000;19;20010;-72
2022/08/11 04:38:05;;;;;;;15.10;8.95;;;16.70;99.90;;;;;;3059824;19;20014;-71
2022/08/11 04:39:18;;;;;;;13.15;9.43;;;16.70;99.90;;;;;;3059911;19;20349;-71
2022/08/11 04:40:52;;;;;;;12.65;9.13;;;16.50;99.90;;;;;;3059668;19;20017;-72
2022/08/11 04:44:04;;;;;;;11.93;8.82;;;16.60;99.90;;;;;;3059906;19;20127;-71
2022/08/11 04:45:50;;;;;;;13.20;9.05;;;16.80;99.90;;;;;;3059943;19;20035;-71
2022/08/11 05:01:43;;;;;;;11.25;8.43;;;16.80;99.90;;;;;;3057924;19;20014;-71
2022/08/11 05:03:30;;;;;;;13.38;8.85;;;16.70;99.90;;;;;;3058200;19;20398;-71
2022/08/11 05:06:49;;;;;;;11.98;8.10;;;16.90;99.90;;;;;;3059249;19;20010;-71
2022/08/11 05:08:33;;;;;;;12.35;8.35;;;18.00;99.90;;;;;;3059477;19;20022;-71
2022/08/11 05:09:50;;;;;;;13.93;7.78;;;16.70;99.90;;;;;;3057748;19;20105;-71
2022/08/11 05:11:24;;;;;;;13.05;8.25;;;16.90;99.90;;;;;;3059064;19;20567;-71
2022/08/11 05:12:37;;;;;;;11.90;8.27;;;16.80;99.90;;;;;;3059631;19;20006;-71
2022/08/11 05:35:45;;;;;;;11.65;7.43;;;17.10;99.90;;;;;;3059286;19;20450;-71
2022/08/11 05:36:49;;;;;;;13.27;8.23;;;17.10;99.90;;;;;;3058889;19;20018;-71
2022/08/11 05:56:29;;;;;;;9.68;7.57;;;17.50;99.90;;;;;;3058695;19;20023;-70
2022/08/11 05:57:34;;;;;;;11.50;7.45;;;17.40;99.90;;;;;;3058403;19;20011;-70
2022/08/11 05:58:40;;;;;;;12.73;7.97;;;17.50;99.90;;;;;;3058455;19;20003;-71
2022/08/11 05:59:41;;;;;;;13.50;7.15;;;17.50;99.90;;;;;;3058660;19;20010;-71
2022/08/11 06:00:48;;;;;;;10.63;7.63;;;17.50;99.90;;;;;;3058872;19;20346;-71
2022/08/11 06:01:50;;;;;;;10.38;7.13;;;17.40;99.90;;;;;;3058537;19;20477;-70
2022/08/11 06:03:02;;;;;;;11.90;7.75;;;17.60;99.90;;;;;;3058766;19;20039;-71
2022/08/11 06:04:15;;;;;;;13.35;7.30;;;17.50;99.90;;;;;;3058369;19;20031;-71
2022/08/11 06:05:19;;;;;;;11.88;7.25;;;17.50;99.90;;;;;;3058581;19;20506;-71
2022/08/11 06:06:21;;;;;;;10.02;7.00;;;18.70;99.90;;;;;;3058575;19;20358;-70
2022/08/11 06:07:31;;;;;;;11.20;7.22;;;17.40;99.90;;;;;;3058771;19;20009;-70
2022/08/11 06:08:34;;;;;;;11.07;6.97;;;17.70;99.90;;;;;;3058524;19;20011;-70
2022/08/11 06:09:41;;;;;;;11.27;7.15;;;17.70;99.90;;;;;;3058414;19;20007;-71
2022/08/11 06:10:45;;;;;;;11.48;7.40;;;17.70;99.90;;;;;;3058685;19;20110;-71
2022/08/11 06:11:49;;;;;;;11.07;7.18;;;17.70;99.90;;;;;;3057860;19;20051;-71
2022/08/11 06:12:55;;;;;;;9.40;6.88;;;17.90;99.90;;;;;;3058615;19;20010;-71
2022/08/11 06:13:56;;;;;;;11.20;7.07;;;17.80;99.90;;;;;;3058528;19;20006;-71
2022/08/11 06:15:05;;;;;;;9.60;6.75;;;17.90;99.90;;;;;;3058826;19;20018;-71
2022/08/11 06:16:07;;;;;;;11.15;6.72;;;17.90;99.90;;;;;;3058400;19;20017;-71
2022/08/11 06:17:12;;;;;;;9.05;6.50;;;18.00;99.90;;;;;;3058592;19;20027;-71
2022/08/11 06:18:17;;;;;;;9.60;7.07;;;18.00;99.90;;;;;;3058487;19;20011;-70
2022/08/11 06:19:24;;;;;;;10.85;7.05;;;17.90;99.90;;;;;;3058590;19;20014;-71
2022/08/11 06:20:31;;;;;;;11.43;7.05;;;17.90;99.90;;;;;;3058412;19;20017;-71
2022/08/11 06:21:36;;;;;;;12.77;6.32;;;18.10;99.90;;;;;;3058538;19;20062;-70
2022/08/11 06:22:40;;;;;;;11.98;7.32;;;17.80;99.90;;;;;;3058383;19;20007;-71
2022/08/11 06:23:44;;;;;;;9.27;6.78;;;18.10;99.90;;;;;;3058347;19;20045;-71
2022/08/11 06:24:52;;;;;;;9.45;6.40;;;18.00;99.90;;;;;;3057611;19;20021;-71
2022/08/11 06:25:57;;;;;;;9.48;6.57;;;18.10;99.90;;;;;;3058191;19;20016;-71
2022/08/11 06:27:00;;;;;;;11.10;6.85;;;18.00;99.90;;;;;;3058238;19;20018;-71
2022/08/11 06:28:06;;;;;;;9.95;6.75;;;18.10;99.90;;;;;;3058331;19;20034;-71
2022/08/11 06:29:10;;;;;;;12.80;6.55;;;18.10;99.90;;;;;;3058311;19;20018;-71
2022/08/11 06:30:17;;;;;;;8.77;6.47;;;18.20;99.90;;;;;;3057084;19;20006;-71
2022/08/11 06:31:22;;;;;;;9.45;6.20;;;18.30;99.90;;;;;;3057795;19;20010;-71
2022/08/11 06:32:28;;;;;;;11.73;6.50;;;18.20;99.90;;;;;;3058308;19;20027;-71
2022/08/11 06:33:38;;;;;;;8.82;6.88;;;18.40;99.90;;;;;;3058352;19;20386;-72
2022/08/11 06:35:03;;;;;;;9.52;6.00;;;18.30;99.90;;;;;;3057837;19;20017;-71
2022/08/11 06:36:10;;;;;;;10.00;6.32;;;18.20;99.90;;;;;;3058082;19;20014;-71
2022/08/11 06:37:26;;;;;;;10.48;6.35;;;18.40;99.90;;;;;;3058597;19;20026;-71
2022/08/11 06:38:43;;;;;;;8.57;6.28;;;18.30;99.90;;;;;;3058209;19;20378;-71
2022/08/11 06:39:54;;;;;;;8.52;6.07;;;18.40;99.90;;;;;;3058144;19;20011;-71
2022/08/11 06:42:35;;;;;;;10.98;6.03;;;18.50;99.90;;;;;;3058473;19;20647;-72
2022/08/11 06:43:48;;;;;;;10.30;6.25;;;18.70;99.90;;;;;;3058301;19;20022;-71
2022/08/11 06:45:04;;;;;;;11.88;6.30;;;18.40;99.90;;;;;;3057642;19;20002;-71
2022/08/11 06:46:11;;;;;;;9.88;5.57;;;18.50;99.90;;;;;;3058175;19;20011;-71
2022/08/11 06:47:19;;;;;;;8.50;5.88;;;18.70;99.90;;;;;;3057417;19;20002;-71
2022/08/11 06:48:23;;;;;;;12.35;6.35;;;18.60;99.90;;;;;;3057868;19;20014;-71
2022/08/11 06:52:16;;;;;;;9.23;5.70;;;18.60;99.90;;;;;;3057934;19;20010;-71
2022/08/11 06:53:19;;;;;;;9.57;5.65;;;18.70;99.90;;;;;;3057804;19;20083;-71
2022/08/11 06:54:23;;;;;;;9.35;5.20;;;18.80;99.90;;;;;;3057712;19;20006;-71
2022/08/11 07:00:42;;;;;;;12.68;5.00;;;18.90;99.90;;;;;;3057674;19;20385;-71
2022/08/11 07:01:53;;;;;;;8.65;5.07;;;18.90;99.90;;;;;;3057862;19;20015;-71
2022/08/11 07:03:02;;;;;;;;;;;18.90;99.90;;;;;;3058517;19;20018;-71
2022/08/11 07:04:07;;;;;;;10.45;4.93;;;19.10;99.90;;;;;;3057955;19;19910;-71
2022/08/11 07:05:24;;;;;;;9.15;5.00;;;19.00;99.90;;;;;;3057042;19;20344;-71
2022/08/11 07:06:39;;;;;;;9.07;4.90;;;19.00;99.90;;;;;;3057650;19;20010;-71
2022/08/11 07:15:59;;;;;;;8.10;5.47;;;19.30;99.90;;;;;;3059641;19;19994;-71
2022/08/11 07:17:01;;;;;;;6.45;5.20;;;19.60;99.90;;;;;;3061194;19;20010;-71
2022/08/11 07:28:58;;;;;;;7.25;4.10;;;19.70;99.90;;;;;;3060997;19;20019;-71
2022/08/11 07:30:00;;;;;;;;;;;19.80;99.90;;;;;;3061635;19;20362;-71
2022/08/11 07:31:12;;;;;;;7.35;4.35;;;20.00;99.90;;;;;;3062182;19;20362;-72
2022/08/11 07:32:17;;;;;;;;;;;19.70;99.90;;;;;;3061770;19;20018;-71
2022/08/11 07:33:27;;;;;;;8.50;4.05;;;19.90;99.90;;;;;;3060737;19;20333;-71
2022/08/11 07:34:38;;;;;;;7.53;4.13;;;19.80;99.90;;;;;;3060919;19;20029;-71
2022/08/11 07:35:54;;;;;;;6.53;4.05;;;19.90;99.90;;;;;;3060666;19;20036;-71
2022/08/11 07:36:57;;;;;;;5.13;3.97;;;19.90;99.90;;;;;;3060728;19;20018;-71
2022/08/11 07:38:04;;;;;;;7.30;3.97;;;19.90;99.90;;;;;;3060592;19;20496;-71
2022/08/11 07:39:14;;;;;;;6.60;3.53;;;19.90;99.90;;;;;;3060553;19;20006;-71
2022/08/11 07:40:22;;;;;;;5.47;3.70;;;20.00;99.90;;;;;;3060618;19;19999;-71
2022/08/11 07:41:27;;;;;;;7.18;3.88;;;20.20;99.90;;;;;;3060760;19;20007;-71
2022/08/11 07:42:34;;;;;;;7.60;3.83;;;20.20;99.90;;;;;;3060652;19;20405;-72
2022/08/11 07:43:37;;;;;;;7.10;3.72;;;20.20;99.90;;;;;;3060491;19;20014;-72
2022/08/11 07:52:39;;;;;;;6.97;3.33;;;20.50;99.90;;;;;;3059133;19;20040;-72
2022/08/11 07:53:44;;;;;;;6.03;3.55;;;20.60;99.90;;;;;;3058905;19;20002;-72
2022/08/11 07:54:45;;;;;;;4.35;2.90;;;20.60;99.90;;;;;;3058815;19;20808;-72
2022/08/11 07:55:51;;;;;;;6.47;3.35;;;20.70;99.90;;;;;;3058847;19;20023;-72
2022/08/11 07:56:53;;;;;;;4.57;3.20;;;20.60;99.90;;;;;;3059085;19;20013;-71
2022/08/11 08:18:35;;;;;;;6.45;2.50;;;21.40;99.90;;;;;;3058570;19;19998;-70
2022/08/11 08:19:37;;;;;;;7.32;2.92;;;21.50;99.90;;;;;;3058537;19;20011;-70
2022/08/11 08:20:48;;;;;;;4.07;2.35;;;21.40;99.90;;;;;;3058331;19;20017;-70
2022/08/11 08:21:50;;;;;;;4.53;2.50;;;21.60;99.90;;;;;;3057154;19;20055;-70
2022/08/11 08:22:58;;;;;;;3.10;2.45;;;21.60;99.90;;;;;;3057103;19;20018;-71
2022/08/11 08:24:02;;;;;;;3.20;2.38;;;21.60;99.90;;;;;;3058494;19;20085;-70
2022/08/11 08:25:07;;;;;;;3.63;2.20;;;21.80;99.90;;;;;;3058464;19;20014;-70
2022/08/11 08:27:30;;;;;;;4.18;2.55;;;21.80;99.90;;;;;;3059067;19;20033;-71
2022/08/11 08:28:33;;;;;;;4.15;2.15;;;21.90;99.90;;;;;;3060107;19;20346;-70
2022/08/11 08:30:57;;;;;;;5.10;2.15;;;21.70;99.90;;;;;;3061321;19;20393;-71
2022/08/11 08:32:01;;;;;;;3.80;2.45;;;22.00;99.90;;;;;;3059813;19;20034;-71
2022/08/11 08:33:06;;;;;;;5.97;2.45;;;22.00;99.90;;;;;;3059999;19;20010;-70
2022/08/11 08:34:12;;;;;;;3.15;2.22;;;21.90;99.90;;;;;;3059815;19;20022;-70
2022/08/11 08:35:14;;;;;;;4.90;2.10;;;22.10;99.90;;;;;;3059714;19;20662;-70
2022/08/11 08:36:19;;;;;;;3.80;2.20;;;22.00;99.90;;;;;;3058806;19;20358;-70
2022/08/11 08:37:22;;;;;;;3.67;2.05;;;22.20;99.90;;;;;;3059323;19;20002;-71
2022/08/11 08:38:29;;;;;;;3.80;2.42;;;22.20;99.90;;;;;;3059652;19;20022;-71
2022/08/11 08:39:32;;;;;;;4.03;2.30;;;22.30;99.90;;;;;;3059731;19;20018;-71
2022/08/11 08:40:36;;;;;;;4.15;2.47;;;22.20;99.90;;;;;;3059615;19;20019;-70
2022/08/11 08:41:38;;;;;;;4.30;2.00;;;22.30;99.90;;;;;;3059916;19;20002;-70
2022/08/11 08:42:50;;;;;;;3.58;2.08;;;22.30;99.80;;;;;;3059694;19;20011;-70
2022/08/11 08:43:57;;;;;;;2.83;2.23;;;22.30;99.60;;;;;;3058609;19;20369;-70
2022/08/11 08:45:04;;;;;;;4.55;2.30;;;22.40;99.70;;;;;;3058781;19;20254;-70
2022/08/11 08:46:11;;;;;;;4.30;2.35;;;22.50;99.90;;;;;;3059529;19;20010;-70
2022/08/11 08:47:15;;;;;;;4.35;2.08;;;22.50;99.80;;;;;;3059963;19;20010;-71
2022/08/11 08:48:21;;;;;;;4.55;2.03;;;22.60;99.90;;;;;;3059505;19;20003;-70
2022/08/11 08:49:30;;;;;;;3.42;2.10;;;22.50;99.70;;;;;;3059669;19;20014;-70
2022/08/11 08:52:06;;;;;;;3.92;1.83;;;22.50;99.20;;;;;;3058404;19;20058;-70
2022/08/11 08:53:08;;;;;;;3.33;2.13;;;22.60;99.10;;;;;;3059604;19;20038;-71
2022/08/11 08:54:20;;;;;;;5.15;2.00;;;22.60;99.00;;;;;;3059520;19;20035;-70
2022/08/11 08:55:22;;;;;;;4.28;2.13;;;22.70;99.00;;;;;;3059401;19;20002;-70